EST,Max TemperatureF,Mean TemperatureF,Min TemperatureF,Max Dew PointF,MeanDew PointF,Min DewpointF,Max Humidity, Mean Humidity, Min Humidity, Max Sea Level PressureIn, Mean Sea Level PressureIn, Min Sea Level PressureIn, Max VisibilityMiles, Mean VisibilityMiles, Min VisibilityMiles, Max Wind SpeedMPH, Mean Wind SpeedMPH, Max Gust SpeedMPH,PrecipitationIn, CloudCover, Events, WindDirDegrees
2012-12-1,73,58,42,59,53,43,100,86,53,30.35,30.30,30.26,10,9,1,9,1,,0.00,5,,104
2012-12-2,78,64,50,61,55,50,100,84,44,30.36,30.30,30.25,10,9,3,7,1,,0.00,2,,118
2012-12-3,77,62,48,63,56,48,100,90,57,30.34,30.28,30.24,10,7,0,8,1,,0.00,4,Fog,122
2012-12-4,75,63,51,63,57,52,100,86,50,30.35,30.28,30.24,10,8,0,6,1,,0.00,5,Fog,131
2012-12-5,77,60,42,57,51,43,100,81,41,30.25,30.17,30.09,10,10,5,6,1,,0.00,1,,71
2012-12-6,71,62,53,63,60,54,100,88,69,30.13,30.08,30.05,10,10,10,10,3,16,0.00,8,,88
2012-12-7,62,55,48,59,56,48,100,96,88,30.09,30.04,29.99,10,7,1,8,2,,0.00,7,,57
2012-12-8,75,60,46,64,58,46,100,92,69,30.10,30.04,30.00,10,6,0,7,2,,0.00,6,Fog,139
2012-12-9,73,63,53,68,63,54,100,95,78,30.13,30.07,30.02,10,6,0,5,1,,0.00,7,Fog,246
2012-12-10,78,64,51,68,60,52,100,86,51,30.01,29.90,29.81,10,6,0,10,3,18,0.00,5,Fog,210
2012-12-11,69,61,53,68,61,52,100,97,83,30.11,29.97,29.84,10,8,2,12,2,,0.00,7,Rain,323
2012-12-12,53,52,50,52,50,46,100,96,87,30.19,30.12,30.08,10,7,1,8,3,,0.00,8,Rain,346
2012-12-13,50,47,44,50,46,45,100,98,93,30.32,30.26,30.16,10,9,3,8,4,,0.00,8,Rain,21
2012-12-14,64,52,41,50,45,41,100,87,52,30.37,30.27,30.19,10,10,5,8,2,,0.00,4,,58
2012-12-15,71,56,41,61,51,41,100,89,64,30.21,30.15,30.08,10,10,7,5,0,,0.00,3,,84
2012-12-16,77,65,53,63,59,54,100,87,57,30.10,30.01,29.94,10,6,0,8,3,,0.00,4,Fog,186
2012-12-17,71,66,60,68,62,61,100,97,83,29.95,29.88,29.79,10,9,2,12,5,22,0.00,6,Rain,207
2012-12-18,68,52,37,61,50,36,100,82,30,30.07,29.95,29.82,10,9,1,16,5,22,0.00,1,,282
2012-12-19,71,52,32,46,39,32,100,76,29,30.15,30.09,30.06,10,10,10,7,1,,0.00,0,,196
2012-12-20,77,57,37,68,54,37,100,88,61,30.10,29.96,29.80,10,10,3,20,6,32,0.00,3,Rain,196
2012-12-21,53,45,35,37,28,23,70,53,30,30.19,30.09,29.98,10,10,10,23,15,33,0.00,0,,295
2012-12-22,57,42,28,34,26,23,100,64,31,30.31,30.24,30.19,10,10,10,15,7,20,0.00,0,,301
2012-12-23,60,44,28,43,33,28,100,73,31,30.28,30.21,30.14,10,10,10,7,1,,0.00,1,,290
2012-12-24,66,54,41,61,50,37,100,89,68,30.15,30.02,29.92,10,10,2,12,3,21,0.00,4,Rain,189
2012-12-25,62,58,55,63,59,55,100,100,100,30.01,29.95,29.84,10,4,0,8,2,,0.00,7,Fog-Rain-Thunderstorm,131
2012-12-26,66,54,41,63,48,34,100,79,52,30.01,29.81,29.64,10,10,2,26,14,34,0.00,5,Rain-Thunderstorm,262
2012-12-27,55,44,32,41,35,32,100,81,51,30.13,30.06,30.01,10,10,7,15,7,20,0.00,1,,299
2012-12-28,59,44,30,50,39,30,100,85,51,30.14,30.05,29.90,10,10,7,9,1,,0.00,2,Rain,120
2012-12-29,62,52,41,63,47,32,100,85,66,30.22,29.96,29.76,10,9,3,23,11,29,0.00,7,Rain-Thunderstorm,290
2012-12-30,51,42,30,36,32,30,100,77,44,30.43,30.36,30.23,10,10,10,15,7,21,0.00,0,,337
2012-12-31,66,48,30,52,40,30,100,85,55,30.42,30.33,30.23,10,10,7,8,1,,0.00,1,,155